createdAt,value
2022-12-04T00:03:34.750Z,94865.44
2022-12-04T00:07:17.619Z,94858.34
2022-12-04T00:11:00.569Z,94863.50
2022-12-04T00:15:23.539Z,94857.34
2022-12-04T00:18:52.905Z,94869.66
2022-12-04T00:22:35.643Z,94867.06
2022-12-04T00:26:19.851Z,94863.50
2022-12-04T00:30:07.512Z,94867.88
2022-12-04T00:33:50.443Z,94866.25
2022-12-04T00:37:34.459Z,94853.47
2022-12-04T00:41:23.048Z,94863.03
2022-12-04T00:45:08.275Z,94872.25
2022-12-04T00:48:51.658Z,94882.97
2022-12-04T00:52:36.455Z,94866.75
2022-12-04T00:56:20.875Z,94875.81
2022-12-04T01:00:05.031Z,94863.84
2022-12-04T01:03:51.945Z,94856.72
2022-12-04T01:07:34.786Z,94861.25
2022-12-04T01:11:20.058Z,94862.53
2022-12-04T01:15:02.814Z,94868.03
2022-12-04T01:18:47.972Z,94860.59
2022-12-04T01:22:32.297Z,94879.84
2022-12-04T01:26:17.258Z,94880.34
2022-12-04T01:30:00.147Z,94873.53
2022-12-04T01:33:43.451Z,94872.56
2022-12-04T01:37:26.218Z,94878.41
2022-12-04T01:41:12.049Z,94886.19
2022-12-04T01:45:30.066Z,94881.97
2022-12-04T01:49:16.450Z,94876.63
2022-12-04T01:53:00.185Z,94863.50
2022-12-04T01:56:46.726Z,94849.25
2022-12-04T02:00:29.661Z,94841.31
2022-12-04T02:04:12.341Z,94849.75
2022-12-04T02:07:59.078Z,94850.06
2022-12-04T02:11:47.973Z,94847.63
2022-12-04T02:15:37.071Z,94854.28
2022-12-04T02:19:34.375Z,94852.16
2022-12-04T02:23:36.785Z,94853.78
2022-12-04T02:27:32.282Z,94833.88
2022-12-04T02:31:20.001Z,94830.13
2022-12-04T02:35:08.073Z,94825.44
2022-12-04T02:38:55.051Z,94816.88
2022-12-04T02:42:41.514Z,94810.72
2022-12-04T02:46:30.006Z,94808.59
2022-12-04T02:50:15.489Z,94801.00
2022-12-04T02:54:01.078Z,94805.19
2022-12-04T02:57:46.555Z,94790.31
2022-12-04T03:01:33.249Z,94792.91
2022-12-04T03:05:21.916Z,94804.22
2022-12-04T03:09:08.349Z,94803.91
2022-12-04T03:12:53.542Z,94803.09
2022-12-04T03:16:45.243Z,94801.97
2022-12-04T03:20:29.828Z,94807.63
2022-12-04T03:24:15.534Z,94804.88
2022-12-04T03:28:01.765Z,94799.69
2022-12-04T03:31:49.169Z,94799.06
2022-12-04T03:35:35.466Z,94799.69
2022-12-04T03:39:20.521Z,94798.91
2022-12-04T03:43:05.785Z,94804.72
2022-12-04T03:46:53.289Z,94806.03
2022-12-04T03:50:38.799Z,94796.78
2022-12-04T03:54:27.659Z,94796.78
2022-12-04T03:58:14.217Z,94788.03
2022-12-04T04:02:00.666Z,94778.66
2022-12-04T04:05:45.947Z,94769.25
2022-12-04T04:09:32.764Z,94785.78
2022-12-04T04:13:36.177Z,94786.41
2022-12-04T04:17:43.016Z,94773.78
2022-12-04T04:21:47.395Z,94771.84
2022-12-04T04:25:30.559Z,94778.00
2022-12-04T04:29:14.162Z,94779.63
2022-12-04T04:33:01.754Z,94774.75
2022-12-04T04:36:52.798Z,94784.81
2022-12-04T04:40:39.787Z,94781.25
2022-12-04T04:44:27.451Z,94783.03
2022-12-04T04:48:18.267Z,94791.59
2022-12-04T04:52:02.894Z,94779.94
2022-12-04T04:55:46.165Z,94767.63
2022-12-04T04:59:28.835Z,94766.19
2022-12-04T05:03:13.080Z,94773.47
2022-12-04T05:06:58.320Z,94786.41
2022-12-04T05:10:41.071Z,94779.94
2022-12-04T05:14:25.840Z,94779.78
2022-12-04T05:18:12.465Z,94780.91
2022-12-04T05:21:57.106Z,94774.44
2022-12-04T05:25:41.084Z,94766.19
2022-12-04T05:29:24.367Z,94758.25
2022-12-04T05:33:07.050Z,94772.50
2022-12-04T05:36:51.122Z,94775.56
2022-12-04T05:40:33.842Z,94772.50
2022-12-04T05:44:17.795Z,94805.38
2022-12-04T05:48:01.059Z,94788.69
2022-12-04T05:51:44.268Z,94776.72
2022-12-04T05:55:31.409Z,94783.66
2022-12-04T05:59:14.254Z,94766.19
2022-12-04T06:02:56.998Z,94771.38
2022-12-04T06:06:40.340Z,94772.50
2022-12-04T06:10:23.146Z,94756.63
2022-12-04T06:14:09.667Z,94745.94
2022-12-04T06:17:54.206Z,94740.44
2022-12-04T06:21:41.134Z,94759.69
2022-12-04T06:25:23.828Z,94775.56
2022-12-04T06:29:07.873Z,94774.75
2022-12-04T06:32:50.573Z,94788.38
2022-12-04T06:36:34.543Z,94778.31
2022-12-04T06:40:17.278Z,94770.38
2022-12-04T06:44:00.397Z,94777.84
2022-12-04T06:47:44.527Z,94784.81
2022-12-04T06:51:29.152Z,94779.63
2022-12-04T06:55:16.423Z,94768.94
2022-12-04T06:59:05.445Z,94760.50
2022-12-04T07:02:49.638Z,94750.78
2022-12-04T07:06:33.737Z,94768.78
2022-12-04T07:10:16.453Z,94780.44
2022-12-04T07:13:59.287Z,94791.59
2022-12-04T07:17:42.028Z,94768.94
2022-12-04T07:21:27.568Z,94773.78
2022-12-04T07:25:10.802Z,94772.81
2022-12-04T07:28:53.638Z,94781.22
2022-12-04T07:32:36.391Z,94773.13
2022-12-04T07:36:20.708Z,94785.78
2022-12-04T07:40:05.286Z,94783.50
2022-12-04T07:43:48.286Z,94796.16
2022-12-04T07:47:31.020Z,94777.19
2022-12-04T07:51:14.999Z,94797.75
2022-12-04T07:54:58.758Z,94776.38
2022-12-04T07:58:42.858Z,94783.03
2022-12-04T08:02:25.590Z,94804.56
2022-12-04T08:06:08.925Z,94785.94
2022-12-04T08:09:51.684Z,94781.22
2022-12-04T08:13:34.397Z,94781.91
2022-12-04T08:17:18.604Z,94778.03
2022-12-04T08:21:06.419Z,94779.97
2022-12-04T08:24:49.506Z,94789.03
2022-12-04T08:28:32.488Z,94785.81
2022-12-04T08:32:15.160Z,94772.50
2022-12-04T08:35:59.850Z,94777.19
2022-12-04T08:39:42.715Z,94786.44
2022-12-04T08:43:25.480Z,94802.31
2022-12-04T08:47:08.299Z,94787.56
2022-12-04T08:50:53.958Z,94803.63
2022-12-04T08:54:38.030Z,94805.56
2022-12-04T08:58:21.048Z,94790.31
2022-12-04T09:02:03.902Z,94785.44
2022-12-04T09:05:47.286Z,94791.44
2022-12-04T09:09:30.271Z,94779.75
2022-12-04T09:13:14.331Z,94791.25
2022-12-04T09:16:57.053Z,94809.06
2022-12-04T09:20:39.722Z,94797.41
2022-12-04T09:24:22.620Z,94806.13
2022-12-04T09:28:05.930Z,94812.97
2022-12-04T09:31:50.035Z,94793.50
2022-12-04T09:35:34.039Z,94797.84
2022-12-04T09:39:16.762Z,94773.03
2022-12-04T09:43:02.211Z,94761.00
2022-12-04T09:46:51.440Z,94750.09
2022-12-04T09:50:41.048Z,94745.38
2022-12-04T09:54:28.730Z,94770.69
2022-12-04T09:58:15.113Z,94779.75
2022-12-04T10:02:07.246Z,94774.88
2022-12-04T10:05:54.914Z,94761.69
2022-12-04T10:09:43.165Z,94747.88
2022-12-04T10:13:57.829Z,94723.03
2022-12-04T10:17:54.046Z,94717.97
2022-12-04T10:21:44.024Z,94708.88
2022-12-04T10:25:32.825Z,94706.56
2022-12-04T10:29:19.939Z,94743.28
2022-12-04T10:33:08.290Z,94711.88
2022-12-04T10:36:52.957Z,94702.59
2022-12-04T10:40:39.368Z,94694.28
2022-12-04T10:44:22.299Z,94709.56
2022-12-04T10:48:08.041Z,94692.81
2022-12-04T10:51:51.041Z,94670.88
2022-12-04T10:55:36.432Z,94674.13
2022-12-04T10:59:22.174Z,94668.22
2022-12-04T11:03:24.874Z,94661.69
2022-12-04T11:07:09.647Z,94655.53
2022-12-04T11:11:01.110Z,94653.56
2022-12-04T11:14:46.990Z,94667.53
2022-12-04T11:18:33.131Z,94688.31
2022-12-04T11:22:17.012Z,94690.91
2022-12-04T11:26:05.608Z,94713.03
2022-12-04T11:29:49.696Z,94691.78
2022-12-04T11:33:39.708Z,94700.66
2022-12-04T11:37:25.210Z,94682.19
2022-12-04T11:41:07.882Z,94693.06
2022-12-04T11:44:58.890Z,94673.66
2022-12-04T11:48:46.780Z,94668.09
2022-12-04T11:52:38.585Z,94669.53
2022-12-04T11:56:25.650Z,94680.13
2022-12-04T12:00:13.875Z,94661.28
2022-12-04T12:04:15.178Z,94657.00
2022-12-04T12:08:03.053Z,94658.28
2022-12-04T12:11:50.922Z,94643.66
2022-12-04T12:15:39.910Z,94643.03
2022-12-04T12:19:57.096Z,94637.47
2022-12-04T12:23:56.016Z,94625.13
2022-12-04T12:27:51.541Z,94635.50
2022-12-04T12:31:47.737Z,94624.75
2022-12-04T12:35:32.524Z,94631.69
2022-12-04T12:39:21.480Z,94629.72
2022-12-04T12:43:08.202Z,94630.66
2022-12-04T12:46:52.873Z,94626.88
2022-12-04T12:50:42.642Z,94632.72
2022-12-04T12:54:32.695Z,94615.03
2022-12-04T12:58:18.848Z,94630.50
2022-12-04T13:02:35.316Z,94614.28
2022-12-04T13:06:31.129Z,94622.94
2022-12-04T13:10:18.026Z,94601.16
2022-12-04T13:14:04.337Z,94581.84
2022-12-04T13:17:48.568Z,94584.63
2022-12-04T13:21:36.659Z,94602.03
2022-12-04T13:25:31.504Z,94603.63
2022-12-04T13:29:20.108Z,94617.56
2022-12-04T13:33:20.383Z,94622.59
2022-12-04T13:37:26.758Z,94623.41
2022-12-04T13:41:16.627Z,94617.84
2022-12-04T13:45:01.902Z,94619.28
2022-12-04T13:48:45.905Z,94612.91
2022-12-04T13:52:40.822Z,94609.22
2022-12-04T13:56:28.584Z,94611.19
2022-12-04T14:00:27.451Z,94614.97
2022-12-04T14:04:24.788Z,94610.28
2022-12-04T14:08:09.565Z,94618.09
2022-12-04T14:11:55.403Z,94601.78
2022-12-04T14:15:38.804Z,94603.13
2022-12-04T14:19:33.624Z,94614.16
2022-12-04T14:23:27.165Z,94624.72
2022-12-04T14:27:33.748Z,94614.50
2022-12-04T14:31:23.612Z,94634.31
2022-12-04T14:35:07.204Z,94629.84
2022-12-04T14:38:52.257Z,94629.88
2022-12-04T14:42:40.073Z,94629.25
2022-12-04T14:46:29.481Z,94619.22
2022-12-04T14:50:20.914Z,94615.34
2022-12-04T14:54:09.503Z,94613.22
2022-12-04T14:57:56.982Z,94602.09
2022-12-04T15:01:43.086Z,94616.69
2022-12-04T15:05:30.693Z,94624.28
2022-12-04T15:09:36.685Z,94641.19
2022-12-04T15:13:28.483Z,94653.91
2022-12-04T15:17:11.936Z,94667.72
2022-12-04T15:20:57.319Z,94649.59
2022-12-04T15:24:40.216Z,94649.19
2022-12-04T15:28:25.784Z,94655.84
2022-12-04T15:32:12.744Z,94665.09
2022-12-04T15:35:57.753Z,94663.00
2022-12-04T15:39:40.588Z,94686.09
2022-12-04T15:43:28.750Z,94685.28
2022-12-04T15:47:22.232Z,94681.66
2022-12-04T15:51:07.248Z,94691.31
2022-12-04T15:54:56.490Z,94687.13
2022-12-04T15:58:40.572Z,94696.56
2022-12-04T16:02:27.257Z,94704.03
2022-12-04T16:06:16.981Z,94713.88
2022-12-04T16:10:04.132Z,94714.69
2022-12-04T16:13:48.320Z,94707.16
2022-12-04T16:17:33.623Z,94704.75
2022-12-04T16:21:18.330Z,94709.28
2022-12-04T16:25:01.099Z,94702.78
2022-12-04T16:28:44.630Z,94713.84
2022-12-04T16:32:30.076Z,94723.06
2022-12-04T16:36:17.134Z,94703.47
2022-12-04T16:40:00.234Z,94717.06
2022-12-04T16:43:43.544Z,94733.75
2022-12-04T16:47:26.320Z,94721.94
2022-12-04T16:51:10.296Z,94720.97
2022-12-04T16:54:54.670Z,94718.03
2022-12-04T16:58:37.732Z,94722.59
2022-12-04T17:02:24.606Z,94713.50
2022-12-04T17:06:07.504Z,94709.59
2022-12-04T17:09:50.231Z,94718.19
2022-12-04T17:13:34.323Z,94704.41
2022-12-04T17:17:17.143Z,94710.56
2022-12-04T17:20:59.931Z,94711.88
2022-12-04T17:24:49.098Z,94714.31
2022-12-04T17:28:37.393Z,94720.16
2022-12-04T17:32:20.137Z,94725.00
2022-12-04T17:36:03.467Z,94712.38
2022-12-04T17:39:46.353Z,94724.50
2022-12-04T17:43:29.915Z,94729.34
2022-12-04T17:47:14.090Z,94728.34
2022-12-04T17:51:05.326Z,94730.63
2022-12-04T17:54:49.369Z,94742.44
2022-12-04T17:58:32.850Z,94737.09
2022-12-04T18:02:17.254Z,94736.78
2022-12-04T18:06:00.790Z,94743.56
2022-12-04T18:09:43.510Z,94733.53
2022-12-04T18:13:26.194Z,94738.38
2022-12-04T18:17:08.939Z,94734.34
2022-12-04T18:21:02.416Z,94743.56
2022-12-04T18:24:45.189Z,94761.75
2022-12-04T18:28:28.201Z,94760.75
2022-12-04T18:32:10.924Z,94750.38
2022-12-04T18:35:57.097Z,94755.25
2022-12-04T18:39:41.137Z,94749.72
2022-12-04T18:43:23.921Z,94751.34
2022-12-04T18:47:06.682Z,94740.63
2022-12-04T18:50:52.070Z,94746.47
2022-12-04T18:54:38.762Z,94753.63
2022-12-04T18:58:24.577Z,94754.78
2022-12-04T19:02:08.414Z,94771.47
2022-12-04T19:05:51.894Z,94763.03
2022-12-04T19:10:09.404Z,94760.91
2022-12-04T19:13:39.166Z,94770.50
2022-12-04T19:17:22.571Z,94769.19
2022-12-04T19:21:06.346Z,94758.53
2022-12-04T19:24:49.077Z,94766.66
2022-12-04T19:28:32.152Z,94761.78
2022-12-04T19:32:19.685Z,94770.56
2022-12-04T19:36:04.100Z,94779.63
2022-12-04T19:39:48.460Z,94775.44
2022-12-04T19:43:31.213Z,94786.28
2022-12-04T19:47:18.134Z,94802.31
2022-12-04T19:51:06.334Z,94809.44
2022-12-04T19:54:49.024Z,94804.25
2022-12-04T19:58:34.703Z,94813.34
2022-12-04T20:02:18.775Z,94821.44
2022-12-04T20:06:03.674Z,94832.78
2022-12-04T20:09:55.148Z,94827.91
2022-12-04T20:13:38.549Z,94836.69
2022-12-04T20:17:22.441Z,94839.59
2022-12-04T20:21:10.817Z,94847.84
2022-12-04T20:24:54.928Z,94847.69
2022-12-04T20:28:38.195Z,94851.44
2022-12-04T20:32:20.936Z,94859.69
2022-12-04T20:36:05.062Z,94863.56
2022-12-04T20:39:48.195Z,94862.59
2022-12-04T20:43:33.870Z,94860.66
2022-12-04T20:47:16.645Z,94873.94
2022-12-04T20:51:08.502Z,94879.63
2022-12-04T20:54:51.715Z,94873.94
2022-12-04T20:58:36.015Z,94882.06
2022-12-04T21:02:18.795Z,94889.34
2022-12-04T21:06:17.102Z,94887.56
2022-12-04T21:10:00.269Z,94887.25
2022-12-04T21:14:01.797Z,94880.09
2022-12-04T21:17:44.581Z,94880.75
2022-12-04T21:21:27.498Z,94873.25
2022-12-04T21:25:10.545Z,94880.22
2022-12-04T21:28:54.660Z,94872.28
2022-12-04T21:32:40.382Z,94867.91
2022-12-04T21:36:32.704Z,94884.91
2022-12-04T21:40:15.455Z,94870.00
2022-12-04T21:43:59.535Z,94879.72
2022-12-04T21:47:42.935Z,94877.28
2022-12-04T21:55:38.011Z,94884.28
2022-12-04T21:59:22.087Z,94867.25
2022-12-04T22:03:06.123Z,94893.03
2022-12-04T22:06:49.067Z,94899.16
2022-12-04T22:10:31.849Z,94900.63
2022-12-04T22:14:15.901Z,94920.56
2022-12-04T22:18:00.034Z,94916.03
2022-12-04T22:21:48.788Z,94930.28
2022-12-04T22:25:31.567Z,94925.41
2022-12-04T22:29:48.766Z,94936.09
2022-12-04T22:33:18.828Z,94933.78
2022-12-04T22:37:01.533Z,94949.63
2022-12-04T22:40:44.353Z,94948.53
2022-12-04T22:44:27.057Z,94943.53
2022-12-04T22:48:09.845Z,94956.47
2022-12-04T22:52:03.206Z,94949.50
2022-12-04T22:55:45.922Z,94956.47
2022-12-04T22:59:28.753Z,94956.16
2022-12-04T23:03:14.405Z,94945.63
2022-12-04T23:07:13.775Z,94951.31
2022-12-04T23:10:56.558Z,94956.50
2022-12-04T23:14:40.185Z,94953.59
2022-12-04T23:18:22.930Z,94934.16
2022-12-04T23:22:05.752Z,94929.31
2022-12-04T23:25:49.835Z,94941.97
2022-12-04T23:33:35.337Z,94940.66
2022-12-04T23:37:18.062Z,94952.66
2022-12-04T23:41:07.135Z,94967.88
2022-12-04T23:44:49.822Z,94973.78
2022-12-04T23:48:33.252Z,94962.44
2022-12-04T23:52:15.970Z,94962.41
2022-12-04T23:55:59.346Z,94958.47
2022-12-04T23:59:43.427Z,94969.53
